CYTR

Trenton Airport

Trenton, , Canada
METAR CYTR 140700Z 06003KT 4SM BR SCT042 M03/M04 A3029 RMK SC3 SLP263
Observed Flight Rules
Dec-14 @ 07:00 UTC (49 minutes ago) Marginal Visual Flight Rules
Wind Visibility Clouds Conditions
60° at 3 knots 4 miles
  • Scattered at 4,200' AGL
  • Mist
Temperatures Readings
Current -3°C / 27°F
Dewpoint -4°C / 25°F
Humidity 93%
Altimeter 30.29" Hg
Pressure 1026.3 hPa
Elevation 86
METAR CYTR 140700Z 06003KT 4SM BR SCT042 M03/M04 A3029 RMK SC3 SLP263
Observed Flight Rules
Dec-14 @ 07:00 UTC
(49 minutes ago)
MVFR
Wind Visibility
60° at 3 knots 4 miles
Clouds
  • Scattered at 4,200' AGL
Conditions
  • Mist
Temperature Dewpoint
-3°C / 27°F -4°C / 25°F
Humidity Altimeter Pressure
93% 30.29" Hg 1026.3 hPa